sensor_id;sensor_type;location;lat;lon;timestamp;pressure;altitude;pressure_sealevel;temperature;humidity
81641;BME280;74020;50.722;-1.944;2023-12-20T00:00:07;101991.66;;;6.48;100.00
81641;BME280;74020;50.722;-1.944;2023-12-20T00:02:31;101981.80;;;6.70;98.57
81641;BME280;74020;50.722;-1.944;2023-12-20T00:04:56;101982.21;;;6.65;98.77
81641;BME280;74020;50.722;-1.944;2023-12-20T00:07:22;101980.11;;;6.73;99.21
81641;BME280;74020;50.722;-1.944;2023-12-20T00:09:47;101980.32;;;6.52;100.00
81641;BME280;74020;50.722;-1.944;2023-12-20T00:12:13;101982.18;;;6.42;100.00
81641;BME280;74020;50.722;-1.944;2023-12-20T00:14:39;101983.71;;;6.48;100.00
81641;BME280;74020;50.722;-1.944;2023-12-20T00:17:04;101985.18;;;6.64;100.00
81641;BME280;74020;50.722;-1.944;2023-12-20T00:19:30;101987.23;;;6.46;100.00
81641;BME280;74020;50.722;-1.944;2023-12-20T00:21:55;101988.17;;;6.42;100.00
81641;BME280;74020;50.722;-1.944;2023-12-20T00:24:22;101987.43;;;6.47;100.00
81641;BME280;74020;50.722;-1.944;2023-12-20T00:26:46;101993.53;;;6.50;99.54
81641;BME280;74020;50.722;-1.944;2023-12-20T00:29:12;101999.50;;;6.67;99.02
81641;BME280;74020;50.722;-1.944;2023-12-20T00:31:37;102001.71;;;6.68;98.63
81641;BME280;74020;50.722;-1.944;2023-12-20T00:34:03;102002.43;;;6.36;100.00
81641;BME280;74020;50.722;-1.944;2023-12-20T00:36:29;102000.85;;;6.39;100.00
81641;BME280;74020;50.722;-1.944;2023-12-20T00:38:54;101998.70;;;6.41;100.00
81641;BME280;74020;50.722;-1.944;2023-12-20T00:41:20;101996.58;;;6.53;99.59
81641;BME280;74020;50.722;-1.944;2023-12-20T00:43:45;101994.37;;;6.36;100.00
81641;BME280;74020;50.722;-1.944;2023-12-20T00:46:11;101994.73;;;6.62;98.92
81641;BME280;74020;50.722;-1.944;2023-12-20T00:48:36;101989.09;;;6.58;98.69
81641;BME280;74020;50.722;-1.944;2023-12-20T00:51:02;101979.47;;;6.39;100.00
81641;BME280;74020;50.722;-1.944;2023-12-20T00:53:27;101977.05;;;6.37;100.00
81641;BME280;74020;50.722;-1.944;2023-12-20T00:55:53;101970.49;;;6.39;99.43
81641;BME280;74020;50.722;-1.944;2023-12-20T00:58:19;101961.88;;;6.33;100.00
81641;BME280;74020;50.722;-1.944;2023-12-20T01:00:44;101966.51;;;6.45;99.51
81641;BME280;74020;50.722;-1.944;2023-12-20T01:03:10;101960.16;;;6.32;99.41
81641;BME280;74020;50.722;-1.944;2023-12-20T01:05:35;101955.68;;;6.33;99.68
81641;BME280;74020;50.722;-1.944;2023-12-20T01:08:01;101948.78;;;6.17;100.00
81641;BME280;74020;50.722;-1.944;2023-12-20T01:10:26;101943.33;;;6.30;100.00
81641;BME280;74020;50.722;-1.944;2023-12-20T01:12:52;101941.94;;;6.41;100.00
81641;BME280;74020;50.722;-1.944;2023-12-20T01:15:17;101935.38;;;6.36;99.88
81641;BME280;74020;50.722;-1.944;2023-12-20T01:17:42;101927.87;;;6.27;99.90
81641;BME280;74020;50.722;-1.944;2023-12-20T01:20:08;101924.39;;;6.18;100.00
81641;BME280;74020;50.722;-1.944;2023-12-20T01:22:34;101932.46;;;6.32;99.88
81641;BME280;74020;50.722;-1.944;2023-12-20T01:24:59;101935.26;;;6.28;99.88
81641;BME280;74020;50.722;-1.944;2023-12-20T01:27:25;101941.21;;;6.14;100.00
81641;BME280;74020;50.722;-1.944;2023-12-20T01:29:50;101952.50;;;6.12;100.00
81641;BME280;74020;50.722;-1.944;2023-12-20T01:32:15;101957.16;;;6.03;100.00
81641;BME280;74020;50.722;-1.944;2023-12-20T01:34:41;101957.44;;;6.06;100.00
81641;BME280;74020;50.722;-1.944;2023-12-20T01:37:07;101961.12;;;6.00;100.00
81641;BME280;74020;50.722;-1.944;2023-12-20T01:39:37;101957.12;;;6.35;99.52
81641;BME280;74020;50.722;-1.944;2023-12-20T01:41:58;101954.73;;;6.34;99.17
81641;BME280;74020;50.722;-1.944;2023-12-20T01:44:23;101955.75;;;6.44;98.60
81641;BME280;74020;50.722;-1.944;2023-12-20T01:46:49;101959.63;;;6.34;98.01
81641;BME280;74020;50.722;-1.944;2023-12-20T01:49:16;101958.69;;;6.41;98.77
81641;BME280;74020;50.722;-1.944;2023-12-20T01:51:40;101950.32;;;6.32;97.94
81641;BME280;74020;50.722;-1.944;2023-12-20T01:54:05;101944.12;;;6.25;98.40
81641;BME280;74020;50.722;-1.944;2023-12-20T01:56:31;101940.87;;;5.95;99.81
81641;BME280;74020;50.722;-1.944;2023-12-20T01:58:57;101942.30;;;5.80;100.00
81641;BME280;74020;50.722;-1.944;2023-12-20T02:01:22;101942.34;;;6.02;100.00
81641;BME280;74020;50.722;-1.944;2023-12-20T02:03:48;101946.91;;;5.84;100.00
81641;BME280;74020;50.722;-1.944;2023-12-20T02:06:13;101955.43;;;5.82;100.00
81641;BME280;74020;50.722;-1.944;2023-12-20T02:08:39;101962.26;;;5.83;100.00
81641;BME280;74020;50.722;-1.944;2023-12-20T02:11:04;101960.50;;;5.81;100.00
81641;BME280;74020;50.722;-1.944;2023-12-20T02:13:30;101958.55;;;5.70;100.00
81641;BME280;74020;50.722;-1.944;2023-12-20T02:15:55;101955.76;;;5.67;100.00
81641;BME280;74020;50.722;-1.944;2023-12-20T02:18:21;101953.96;;;5.53;100.00
81641;BME280;74020;50.722;-1.944;2023-12-20T02:20:46;101960.46;;;5.69;100.00
81641;BME280;74020;50.722;-1.944;2023-12-20T02:23:12;101968.30;;;5.97;100.00
81641;BME280;74020;50.722;-1.944;2023-12-20T02:25:38;101962.20;;;6.24;99.99
81641;BME280;74020;50.722;-1.944;2023-12-20T02:28:04;101962.38;;;6.16;99.87
81641;BME280;74020;50.722;-1.944;2023-12-20T02:30:29;101963.86;;;6.09;99.19
81641;BME280;74020;50.722;-1.944;2023-12-20T02:32:55;101964.02;;;5.99;100.00
81641;BME280;74020;50.722;-1.944;2023-12-20T02:35:20;101960.74;;;5.87;100.00
81641;BME280;74020;50.722;-1.944;2023-12-20T02:37:46;101961.49;;;5.91;100.00
81641;BME280;74020;50.722;-1.944;2023-12-20T02:40:11;101968.39;;;5.95;100.00
81641;BME280;74020;50.722;-1.944;2023-12-20T02:42:36;101964.71;;;5.87;100.00
81641;BME280;74020;50.722;-1.944;2023-12-20T02:45:02;101960.90;;;5.80;100.00
81641;BME280;74020;50.722;-1.944;2023-12-20T02:47:27;101964.70;;;5.91;100.00
81641;BME280;74020;50.722;-1.944;2023-12-20T02:49:53;101962.50;;;5.85;100.00
81641;BME280;74020;50.722;-1.944;2023-12-20T02:52:18;101956.96;;;6.15;99.89
81641;BME280;74020;50.722;-1.944;2023-12-20T02:54:44;101940.17;;;6.08;100.00
81641;BME280;74020;50.722;-1.944;2023-12-20T02:57:10;101948.07;;;6.36;99.04
81641;BME280;74020;50.722;-1.944;2023-12-20T02:59:35;101948.03;;;6.62;96.10
81641;BME280;74020;50.722;-1.944;2023-12-20T03:02:01;101947.72;;;6.67;95.54
81641;BME280;74020;50.722;-1.944;2023-12-20T03:04:26;101950.48;;;6.62;97.08
81641;BME280;74020;50.722;-1.944;2023-12-20T03:06:51;101948.54;;;6.67;96.56
81641;BME280;74020;50.722;-1.944;2023-12-20T03:09:17;101948.73;;;6.48;96.91
81641;BME280;74020;50.722;-1.944;2023-12-20T03:11:42;101944.72;;;6.37;98.23
81641;BME280;74020;50.722;-1.944;2023-12-20T03:14:08;101941.38;;;6.82;95.28
81641;BME280;74020;50.722;-1.944;2023-12-20T03:16:33;101943.40;;;6.47;97.49
81641;BME280;74020;50.722;-1.944;2023-12-20T03:18:58;101944.37;;;6.36;98.93
81641;BME280;74020;50.722;-1.944;2023-12-20T03:21:24;101939.72;;;6.66;96.80
81641;BME280;74020;50.722;-1.944;2023-12-20T03:23:49;101932.10;;;6.66;95.00
81641;BME280;74020;50.722;-1.944;2023-12-20T03:26:15;101926.42;;;6.79;94.59
81641;BME280;74020;50.722;-1.944;2023-12-20T03:28:40;101930.27;;;6.51;95.15
81641;BME280;74020;50.722;-1.944;2023-12-20T03:31:06;101925.85;;;6.60;95.31
81641;BME280;74020;50.722;-1.944;2023-12-20T03:33:31;101931.02;;;6.66;94.96
81641;BME280;74020;50.722;-1.944;2023-12-20T03:35:57;101934.90;;;6.48;96.00
81641;BME280;74020;50.722;-1.944;2023-12-20T03:38:24;101934.48;;;6.38;98.50
81641;BME280;74020;50.722;-1.944;2023-12-20T03:40:48;101935.56;;;6.41;97.11
81641;BME280;74020;50.722;-1.944;2023-12-20T03:43:13;101931.09;;;6.45;98.02
81641;BME280;74020;50.722;-1.944;2023-12-20T03:45:39;101926.80;;;6.50;97.59
81641;BME280;74020;50.722;-1.944;2023-12-20T03:48:05;101926.67;;;6.48;98.74
81641;BME280;74020;50.722;-1.944;2023-12-20T03:50:30;101927.97;;;6.52;98.15
81641;BME280;74020;50.722;-1.944;2023-12-20T03:52:56;101932.20;;;6.70;97.31
81641;BME280;74020;50.722;-1.944;2023-12-20T03:55:21;101939.96;;;6.88;96.65
81641;BME280;74020;50.722;-1.944;2023-12-20T03:57:47;101941.51;;;7.00;96.11
81641;BME280;74020;50.722;-1.944;2023-12-20T04:00:13;101941.58;;;6.91;96.45
81641;BME280;74020;50.722;-1.944;2023-12-20T04:02:39;101942.18;;;6.86;96.91
81641;BME280;74020;50.722;-1.944;2023-12-20T04:05:04;101944.88;;;7.11;95.24
81641;BME280;74020;50.722;-1.944;2023-12-20T04:07:29;101945.05;;;7.08;95.25
81641;BME280;74020;50.722;-1.944;2023-12-20T04:09:54;101945.91;;;7.14;95.18
81641;BME280;74020;50.722;-1.944;2023-12-20T04:12:20;101936.14;;;6.85;96.90
81641;BME280;74020;50.722;-1.944;2023-12-20T04:14:45;101933.02;;;7.07;95.53
81641;BME280;74020;50.722;-1.944;2023-12-20T04:17:11;101927.78;;;7.05;95.35
81641;BME280;74020;50.722;-1.944;2023-12-20T04:19:36;101929.70;;;7.30;94.73
81641;BME280;74020;50.722;-1.944;2023-12-20T04:22:02;101925.61;;;7.35;94.90
81641;BME280;74020;50.722;-1.944;2023-12-20T04:24:27;101920.34;;;7.35;95.03
81641;BME280;74020;50.722;-1.944;2023-12-20T04:26:53;101921.05;;;7.30;95.45
81641;BME280;74020;50.722;-1.944;2023-12-20T04:29:18;101915.97;;;7.50;94.42
81641;BME280;74020;50.722;-1.944;2023-12-20T04:31:44;101921.11;;;7.46;94.35
81641;BME280;74020;50.722;-1.944;2023-12-20T04:34:09;101917.16;;;7.43;95.30
81641;BME280;74020;50.722;-1.944;2023-12-20T04:36:35;101916.86;;;7.49;94.38
81641;BME280;74020;50.722;-1.944;2023-12-20T04:39:00;101909.84;;;7.24;97.51
81641;BME280;74020;50.722;-1.944;2023-12-20T04:41:25;101910.79;;;7.37;95.28
81641;BME280;74020;50.722;-1.944;2023-12-20T04:43:51;101905.86;;;7.34;96.41
81641;BME280;74020;50.722;-1.944;2023-12-20T04:46:16;101901.93;;;7.51;95.26
81641;BME280;74020;50.722;-1.944;2023-12-20T04:48:42;101898.62;;;7.38;96.11
81641;BME280;74020;50.722;-1.944;2023-12-20T04:51:07;101897.02;;;7.49;95.44
81641;BME280;74020;50.722;-1.944;2023-12-20T04:53:33;101895.43;;;7.56;95.68
81641;BME280;74020;50.722;-1.944;2023-12-20T04:55:58;101887.58;;;7.67;94.22
81641;BME280;74020;50.722;-1.944;2023-12-20T04:58:29;101892.37;;;7.72;94.57
81641;BME280;74020;50.722;-1.944;2023-12-20T05:00:49;101894.70;;;7.66;94.17
81641;BME280;74020;50.722;-1.944;2023-12-20T05:03:15;101898.61;;;7.55;94.94
81641;BME280;74020;50.722;-1.944;2023-12-20T05:05:40;101900.37;;;7.73;93.92
81641;BME280;74020;50.722;-1.944;2023-12-20T05:08:06;101891.17;;;7.68;94.31
81641;BME280;74020;50.722;-1.944;2023-12-20T05:10:33;101893.54;;;7.85;93.70
81641;BME280;74020;50.722;-1.944;2023-12-20T05:13:02;101888.83;;;7.77;94.25
81641;BME280;74020;50.722;-1.944;2023-12-20T05:15:22;101893.11;;;7.66;94.65
81641;BME280;74020;50.722;-1.944;2023-12-20T05:17:48;101888.96;;;7.85;93.76
81641;BME280;74020;50.722;-1.944;2023-12-20T05:20:13;101887.56;;;7.77;94.04
81641;BME280;74020;50.722;-1.944;2023-12-20T05:22:39;101892.44;;;7.85;94.07
81641;BME280;74020;50.722;-1.944;2023-12-20T05:25:05;101895.21;;;7.81;93.85
81641;BME280;74020;50.722;-1.944;2023-12-20T05:27:30;101896.96;;;7.74;94.14
81641;BME280;74020;50.722;-1.944;2023-12-20T05:29:55;101901.87;;;7.58;95.70
81641;BME280;74020;50.722;-1.944;2023-12-20T05:32:21;101906.13;;;7.58;95.36
81641;BME280;74020;50.722;-1.944;2023-12-20T05:34:46;101909.58;;;7.57;95.32
81641;BME280;74020;50.722;-1.944;2023-12-20T05:37:12;101909.93;;;7.61;95.09
81641;BME280;74020;50.722;-1.944;2023-12-20T05:39:37;101908.65;;;7.50;95.51
81641;BME280;74020;50.722;-1.944;2023-12-20T05:42:03;101911.38;;;7.52;95.75
81641;BME280;74020;50.722;-1.944;2023-12-20T05:44:28;101912.99;;;7.58;96.31
81641;BME280;74020;50.722;-1.944;2023-12-20T05:46:54;101904.66;;;7.81;94.56
81641;BME280;74020;50.722;-1.944;2023-12-20T05:49:19;101890.51;;;7.66;95.36
81641;BME280;74020;50.722;-1.944;2023-12-20T05:51:45;101889.55;;;7.69;95.74
81641;BME280;74020;50.722;-1.944;2023-12-20T05:54:10;101880.90;;;7.66;95.80
81641;BME280;74020;50.722;-1.944;2023-12-20T05:56:36;101878.44;;;7.55;96.26
81641;BME280;74020;50.722;-1.944;2023-12-20T05:59:01;101876.51;;;7.63;95.85
81641;BME280;74020;50.722;-1.944;2023-12-20T06:01:26;101877.17;;;7.74;95.88
81641;BME280;74020;50.722;-1.944;2023-12-20T06:03:52;101870.46;;;7.83;95.05
81641;BME280;74020;50.722;-1.944;2023-12-20T06:06:17;101866.69;;;7.81;96.02
81641;BME280;74020;50.722;-1.944;2023-12-20T06:08:43;101873.34;;;7.65;97.10
81641;BME280;74020;50.722;-1.944;2023-12-20T06:11:08;101863.09;;;7.91;95.53
81641;BME280;74020;50.722;-1.944;2023-12-20T06:13:34;101866.76;;;7.82;95.94
81641;BME280;74020;50.722;-1.944;2023-12-20T06:15:59;101866.45;;;8.05;95.17
81641;BME280;74020;50.722;-1.944;2023-12-20T06:18:25;101866.55;;;8.01;94.88
81641;BME280;74020;50.722;-1.944;2023-12-20T06:20:51;101876.01;;;8.03;94.44
81641;BME280;74020;50.722;-1.944;2023-12-20T06:23:16;101878.15;;;8.21;94.59
81641;BME280;74020;50.722;-1.944;2023-12-20T06:25:42;101881.02;;;7.97;95.53
81641;BME280;74020;50.722;-1.944;2023-12-20T06:28:07;101877.57;;;7.99;95.70
81641;BME280;74020;50.722;-1.944;2023-12-20T06:30:33;101881.18;;;7.90;96.58
81641;BME280;74020;50.722;-1.944;2023-12-20T06:32:58;101877.88;;;7.89;96.95
81641;BME280;74020;50.722;-1.944;2023-12-20T06:35:24;101874.61;;;8.02;96.21
81641;BME280;74020;50.722;-1.944;2023-12-20T06:37:49;101877.19;;;8.06;95.26
81641;BME280;74020;50.722;-1.944;2023-12-20T06:40:15;101884.23;;;7.90;96.66
81641;BME280;74020;50.722;-1.944;2023-12-20T06:42:40;101889.09;;;7.95;97.01
81641;BME280;74020;50.722;-1.944;2023-12-20T06:45:06;101893.09;;;8.03;96.67
81641;BME280;74020;50.722;-1.944;2023-12-20T06:47:31;101897.34;;;7.94;97.52
81641;BME280;74020;50.722;-1.944;2023-12-20T06:49:56;101894.09;;;8.08;97.09
81641;BME280;74020;50.722;-1.944;2023-12-20T06:52:22;101890.40;;;8.14;96.75
81641;BME280;74020;50.722;-1.944;2023-12-20T06:54:48;101890.84;;;8.12;96.63
81641;BME280;74020;50.722;-1.944;2023-12-20T06:57:13;101888.56;;;8.40;94.87
81641;BME280;74020;50.722;-1.944;2023-12-20T06:59:39;101881.33;;;8.25;95.21
81641;BME280;74020;50.722;-1.944;2023-12-20T07:02:04;101881.19;;;8.14;96.56
81641;BME280;74020;50.722;-1.944;2023-12-20T07:04:29;101870.04;;;8.22;95.27
81641;BME280;74020;50.722;-1.944;2023-12-20T07:06:54;101864.41;;;8.33;94.82
81641;BME280;74020;50.722;-1.944;2023-12-20T07:09:20;101861.94;;;8.27;95.02
81641;BME280;74020;50.722;-1.944;2023-12-20T07:11:45;101869.37;;;7.94;97.03
81641;BME280;74020;50.722;-1.944;2023-12-20T07:14:12;101869.52;;;7.92;97.26
81641;BME280;74020;50.722;-1.944;2023-12-20T07:16:36;101866.80;;;7.92;97.23
81641;BME280;74020;50.722;-1.944;2023-12-20T07:19:02;101880.35;;;7.95;97.54
81641;BME280;74020;50.722;-1.944;2023-12-20T07:21:27;101878.46;;;7.92;98.66
81641;BME280;74020;50.722;-1.944;2023-12-20T07:23:53;101867.18;;;7.98;97.67
81641;BME280;74020;50.722;-1.944;2023-12-20T07:26:18;101873.84;;;7.98;97.84
81641;BME280;74020;50.722;-1.944;2023-12-20T07:28:46;101877.59;;;8.13;97.04
81641;BME280;74020;50.722;-1.944;2023-12-20T07:31:09;101858.87;;;8.17;97.06
81641;BME280;74020;50.722;-1.944;2023-12-20T07:33:35;101842.74;;;8.12;97.76
81641;BME280;74020;50.722;-1.944;2023-12-20T07:36:00;101859.51;;;8.24;97.41
81641;BME280;74020;50.722;-1.944;2023-12-20T07:38:25;101843.09;;;8.14;98.26
81641;BME280;74020;50.722;-1.944;2023-12-20T07:40:50;101839.93;;;8.34;97.42
81641;BME280;74020;50.722;-1.944;2023-12-20T07:43:16;101836.49;;;8.43;96.45
81641;BME280;74020;50.722;-1.944;2023-12-20T07:45:41;101836.35;;;8.39;96.52
81641;BME280;74020;50.722;-1.944;2023-12-20T07:48:07;101837.11;;;8.45;96.82
81641;BME280;74020;50.722;-1.944;2023-12-20T07:50:32;101840.07;;;8.52;96.61
81641;BME280;74020;50.722;-1.944;2023-12-20T07:52:59;101841.15;;;8.47;96.97
81641;BME280;74020;50.722;-1.944;2023-12-20T07:55:23;101837.52;;;8.50;96.98
81641;BME280;74020;50.722;-1.944;2023-12-20T07:57:48;101834.52;;;8.44;97.76
81641;BME280;74020;50.722;-1.944;2023-12-20T08:00:14;101837.19;;;8.61;96.74
81641;BME280;74020;50.722;-1.944;2023-12-20T08:02:39;101837.60;;;8.68;96.55
81641;BME280;74020;50.722;-1.944;2023-12-20T08:05:05;101843.14;;;8.82;96.04
81641;BME280;74020;50.722;-1.944;2023-12-20T08:07:30;101848.85;;;8.87;95.28
81641;BME280;74020;50.722;-1.944;2023-12-20T08:09:55;101856.06;;;8.54;97.74
81641;BME280;74020;50.722;-1.944;2023-12-20T08:12:21;101855.18;;;8.60;97.68
81641;BME280;74020;50.722;-1.944;2023-12-20T08:14:46;101851.99;;;8.49;98.59
81641;BME280;74020;50.722;-1.944;2023-12-20T08:17:11;101851.45;;;8.68;97.42
81641;BME280;74020;50.722;-1.944;2023-12-20T08:19:37;101851.03;;;8.88;96.32
81641;BME280;74020;50.722;-1.944;2023-12-20T08:22:03;101850.04;;;8.77;97.07
81641;BME280;74020;50.722;-1.944;2023-12-20T08:24:28;101856.47;;;8.69;97.78
81641;BME280;74020;50.722;-1.944;2023-12-20T08:26:53;101847.29;;;8.80;96.92
81641;BME280;74020;50.722;-1.944;2023-12-20T08:29:19;101848.78;;;8.63;98.17
81641;BME280;74020;50.722;-1.944;2023-12-20T08:31:44;101852.12;;;8.68;97.60
81641;BME280;74020;50.722;-1.944;2023-12-20T08:34:10;101862.58;;;8.63;98.07
81641;BME280;74020;50.722;-1.944;2023-12-20T08:36:35;101866.49;;;8.85;96.94
81641;BME280;74020;50.722;-1.944;2023-12-20T08:39:00;101866.95;;;8.84;97.02
81641;BME280;74020;50.722;-1.944;2023-12-20T08:41:26;101870.49;;;8.86;96.93
81641;BME280;74020;50.722;-1.944;2023-12-20T08:43:51;101882.30;;;8.69;97.92
81641;BME280;74020;50.722;-1.944;2023-12-20T08:46:17;101884.83;;;8.82;97.55
81641;BME280;74020;50.722;-1.944;2023-12-20T08:48:44;101888.39;;;8.83;97.39
81641;BME280;74020;50.722;-1.944;2023-12-20T08:51:08;101890.37;;;9.00;96.22
81641;BME280;74020;50.722;-1.944;2023-12-20T08:53:33;101888.65;;;8.86;97.63
81641;BME280;74020;50.722;-1.944;2023-12-20T08:55:58;101885.06;;;9.05;96.39
81641;BME280;74020;50.722;-1.944;2023-12-20T08:58:24;101895.11;;;8.91;97.13
81641;BME280;74020;50.722;-1.944;2023-12-20T09:00:49;101889.85;;;9.08;96.37
81641;BME280;74020;50.722;-1.944;2023-12-20T09:03:15;101883.22;;;9.03;96.57
81641;BME280;74020;50.722;-1.944;2023-12-20T09:05:40;101874.52;;;8.96;97.60
81641;BME280;74020;50.722;-1.944;2023-12-20T09:08:06;101874.61;;;8.89;97.96
81641;BME280;74020;50.722;-1.944;2023-12-20T09:10:31;101871.01;;;8.98;97.07
81641;BME280;74020;50.722;-1.944;2023-12-20T09:12:56;101867.16;;;8.83;98.35
81641;BME280;74020;50.722;-1.944;2023-12-20T09:15:23;101869.56;;;9.01;97.49
81641;BME280;74020;50.722;-1.944;2023-12-20T09:17:48;101870.09;;;8.98;97.70
81641;BME280;74020;50.722;-1.944;2023-12-20T09:20:13;101875.75;;;9.11;97.07
81641;BME280;74020;50.722;-1.944;2023-12-20T09:22:39;101875.04;;;8.99;97.87
81641;BME280;74020;50.722;-1.944;2023-12-20T09:25:05;101873.15;;;9.16;97.07
81641;BME280;74020;50.722;-1.944;2023-12-20T09:27:29;101864.91;;;9.12;97.81
81641;BME280;74020;50.722;-1.944;2023-12-20T09:29:55;101857.72;;;9.22;97.48
81641;BME280;74020;50.722;-1.944;2023-12-20T09:32:20;101860.31;;;9.21;97.94
81641;BME280;74020;50.722;-1.944;2023-12-20T09:34:46;101869.71;;;9.42;96.93
81641;BME280;74020;50.722;-1.944;2023-12-20T09:37:11;101870.52;;;9.43;97.20
81641;BME280;74020;50.722;-1.944;2023-12-20T09:39:36;101872.99;;;9.36;98.44
81641;BME280;74020;50.722;-1.944;2023-12-20T09:42:03;101861.18;;;9.51;97.20
81641;BME280;74020;50.722;-1.944;2023-12-20T09:44:27;101860.93;;;9.52;97.96
81641;BME280;74020;50.722;-1.944;2023-12-20T09:46:53;101862.19;;;9.52;97.74
81641;BME280;74020;50.722;-1.944;2023-12-20T09:49:18;101860.93;;;9.69;96.89
81641;BME280;74020;50.722;-1.944;2023-12-20T09:51:43;101854.73;;;9.76;95.88
81641;BME280;74020;50.722;-1.944;2023-12-20T09:54:09;101867.23;;;9.73;96.74
81641;BME280;74020;50.722;-1.944;2023-12-20T09:56:34;101868.88;;;9.82;96.25
81641;BME280;74020;50.722;-1.944;2023-12-20T09:58:59;101842.69;;;9.65;96.69
81641;BME280;74020;50.722;-1.944;2023-12-20T10:01:25;101844.93;;;9.66;97.16
81641;BME280;74020;50.722;-1.944;2023-12-20T10:03:51;101851.79;;;9.54;97.47
81641;BME280;74020;50.722;-1.944;2023-12-20T10:06:15;101846.46;;;9.48;98.10
81641;BME280;74020;50.722;-1.944;2023-12-20T10:08:41;101853.26;;;9.39;98.55
81641;BME280;74020;50.722;-1.944;2023-12-20T10:11:06;101866.81;;;9.39;99.76
81641;BME280;74020;50.722;-1.944;2023-12-20T10:13:31;101870.65;;;9.37;99.48
81641;BME280;74020;50.722;-1.944;2023-12-20T10:15:57;101866.72;;;9.61;98.43
81641;BME280;74020;50.722;-1.944;2023-12-20T10:18:22;101861.87;;;9.73;97.45
81641;BME280;74020;50.722;-1.944;2023-12-20T10:20:49;101858.30;;;9.80;97.81
81641;BME280;74020;50.722;-1.944;2023-12-20T10:23:15;101870.47;;;9.75;97.71
81641;BME280;74020;50.722;-1.944;2023-12-20T10:25:39;101870.45;;;9.95;96.93
81641;BME280;74020;50.722;-1.944;2023-12-20T10:28:10;101868.75;;;10.10;95.33
81641;BME280;74020;50.722;-1.944;2023-12-20T10:30:29;101876.66;;;10.09;96.27
81641;BME280;74020;50.722;-1.944;2023-12-20T10:32:55;101893.04;;;9.94;96.11
81641;BME280;74020;50.722;-1.944;2023-12-20T10:35:20;101892.31;;;10.04;96.09
81641;BME280;74020;50.722;-1.944;2023-12-20T10:37:46;101886.73;;;10.15;95.40
81641;BME280;74020;50.722;-1.944;2023-12-20T10:40:12;101893.46;;;10.11;96.04
81641;BME280;74020;50.722;-1.944;2023-12-20T10:42:37;101884.94;;;10.29;95.01
81641;BME280;74020;50.722;-1.944;2023-12-20T10:45:02;101885.23;;;10.03;96.97
81641;BME280;74020;50.722;-1.944;2023-12-20T10:47:28;101879.94;;;9.99;97.29
81641;BME280;74020;50.722;-1.944;2023-12-20T10:49:53;101877.83;;;10.27;95.04
81641;BME280;74020;50.722;-1.944;2023-12-20T10:52:18;101874.03;;;10.33;95.15
81641;BME280;74020;50.722;-1.944;2023-12-20T10:54:44;101867.55;;;10.45;93.79
81641;BME280;74020;50.722;-1.944;2023-12-20T10:57:09;101845.80;;;10.38;94.03
81641;BME280;74020;50.722;-1.944;2023-12-20T10:59:37;101835.00;;;10.50;92.65
81641;BME280;74020;50.722;-1.944;2023-12-20T11:01:59;101841.97;;;10.44;93.04
81641;BME280;74020;50.722;-1.944;2023-12-20T11:04:31;101842.18;;;10.55;92.33
81641;BME280;74020;50.722;-1.944;2023-12-20T11:06:53;101841.86;;;10.51;92.61
81641;BME280;74020;50.722;-1.944;2023-12-20T11:09:22;101836.62;;;10.40;93.19
81641;BME280;74020;50.722;-1.944;2023-12-20T11:11:55;101831.19;;;10.45;92.54
81641;BME280;74020;50.722;-1.944;2023-12-20T11:14:11;101811.19;;;10.30;94.35
81641;BME280;74020;50.722;-1.944;2023-12-20T11:16:32;101812.93;;;10.38;93.34
81641;BME280;74020;50.722;-1.944;2023-12-20T11:18:57;101801.50;;;10.30;94.25
81641;BME280;74020;50.722;-1.944;2023-12-20T11:21:22;101785.17;;;10.24;94.12
81641;BME280;74020;50.722;-1.944;2023-12-20T11:23:47;101778.77;;;10.38;93.10
81641;BME280;74020;50.722;-1.944;2023-12-20T11:26:16;101774.27;;;10.41;92.45
81641;BME280;74020;50.722;-1.944;2023-12-20T11:28:38;101776.61;;;10.21;93.82
81641;BME280;74020;50.722;-1.944;2023-12-20T11:31:03;101776.65;;;10.34;93.04
81641;BME280;74020;50.722;-1.944;2023-12-20T11:33:30;101760.18;;;10.47;92.24
81641;BME280;74020;50.722;-1.944;2023-12-20T11:35:56;101753.68;;;10.55;91.76
81641;BME280;74020;50.722;-1.944;2023-12-20T11:38:20;101750.15;;;10.46;92.40
81641;BME280;74020;50.722;-1.944;2023-12-20T11:40:45;101754.81;;;10.66;91.16
81641;BME280;74020;50.722;-1.944;2023-12-20T11:43:10;101757.20;;;10.69;91.27
81641;BME280;74020;50.722;-1.944;2023-12-20T11:45:35;101747.93;;;10.62;91.10
81641;BME280;74020;50.722;-1.944;2023-12-20T11:48:02;101736.73;;;10.56;91.69
81641;BME280;74020;50.722;-1.944;2023-12-20T11:50:26;101737.95;;;10.54;92.64
81641;BME280;74020;50.722;-1.944;2023-12-20T11:52:52;101744.36;;;10.77;91.41
81641;BME280;74020;50.722;-1.944;2023-12-20T11:55:17;101749.37;;;10.68;92.02
81641;BME280;74020;50.722;-1.944;2023-12-20T11:57:43;101757.63;;;10.64;92.16
81641;BME280;74020;50.722;-1.944;2023-12-20T12:00:08;101756.02;;;10.54;92.75
81641;BME280;74020;50.722;-1.944;2023-12-20T12:02:33;101755.15;;;10.55;93.50
81641;BME280;74020;50.722;-1.944;2023-12-20T12:05:00;101743.29;;;10.46;94.70
81641;BME280;74020;50.722;-1.944;2023-12-20T12:07:24;101731.05;;;10.55;94.27
81641;BME280;74020;50.722;-1.944;2023-12-20T12:09:49;101732.37;;;10.48;95.20
81641;BME280;74020;50.722;-1.944;2023-12-20T12:12:15;101718.21;;;10.42;96.05
81641;BME280;74020;50.722;-1.944;2023-12-20T12:14:40;101707.52;;;10.46;95.54
81641;BME280;74020;50.722;-1.944;2023-12-20T12:17:05;101700.62;;;10.45;95.85
81641;BME280;74020;50.722;-1.944;2023-12-20T12:19:30;101694.72;;;10.50;95.97
81641;BME280;74020;50.722;-1.944;2023-12-20T12:22:04;101703.53;;;10.53;95.62
81641;BME280;74020;50.722;-1.944;2023-12-20T12:24:21;101709.06;;;10.48;96.85
81641;BME280;74020;50.722;-1.944;2023-12-20T12:26:50;101705.47;;;10.60;95.70
81641;BME280;74020;50.722;-1.944;2023-12-20T12:29:12;101698.43;;;10.52;96.15
81641;BME280;74020;50.722;-1.944;2023-12-20T12:31:37;101684.12;;;10.67;95.16
81641;BME280;74020;50.722;-1.944;2023-12-20T12:34:02;101676.42;;;10.63;96.10
81641;BME280;74020;50.722;-1.944;2023-12-20T12:36:28;101665.83;;;10.74;95.54